Time;durP1;ratioP1;P1;durP2;ratioP2;P2;SDS_P1;SDS_P2;PMS_P1;PMS_P2;Temp;Humidity;BMP_temperature;BMP_pressure;BME280_temperature;BME280_humidity;BME280_pressure;Samples;Min_cycle;Max_cycle;Signal;HPM_P1;HPM_P2
2021/09/01 00:01:27;;;;;;;2.73;2.53;;;;;;;22.26;91.85;98229.75;4987847;28;20207;-69
2021/09/01 00:03:54;;;;;;;4.03;2.37;;;;;;;22.14;92.05;98212.22;4986061;28;20254;-69
2021/09/01 00:06:20;;;;;;;2.43;2.23;;;;;;;22.25;92.39;98228.00;4986483;28;20239;-69
2021/09/01 00:08:49;;;;;;;2.63;2.43;;;;;;;22.17;92.22;98221.72;4985607;28;20206;-69
2021/09/01 00:11:17;;;;;;;2.80;2.60;;;;;;;21.76;92.08;98158.69;4986024;28;20293;-69
2021/09/01 00:13:43;;;;;;;3.17;2.80;;;;;;;22.05;92.27;98200.78;4984151;28;20866;-69
2021/09/01 00:16:31;;;;;;;3.00;2.80;;;;;;;;;;4985216;28;20237;-69
2021/09/01 00:19:04;;;;;;;2.40;2.20;;;;;;;22.25;92.32;98234.00;4985900;28;20222;-69
2021/09/01 00:21:31;;;;;;;2.83;2.43;;;;;;;22.26;92.35;98235.72;4985704;28;20207;-69
2021/09/01 00:23:58;;;;;;;2.77;2.43;;;;;;;21.83;92.29;98160.72;4986494;28;20223;-69
2021/09/01 00:26:24;;;;;;;2.50;2.30;;;;;;;21.97;92.33;98187.69;4969019;28;20294;-69
2021/09/01 00:28:51;;;;;;;2.80;2.50;;;;;;;22.16;92.25;98228.53;4985001;28;20710;-70
2021/09/01 00:31:20;;;;;;;2.60;2.40;;;;;;;21.58;92.26;98122.16;4984024;28;20262;-69
2021/09/01 00:33:47;;;;;;;2.50;2.30;;;;;;;22.26;92.22;98237.44;4985455;28;20261;-69
2021/09/01 00:36:14;;;;;;;2.60;2.40;;;;;;;22.21;92.09;98232.16;4985906;28;20211;-67
2021/09/01 00:38:40;;;;;;;2.57;2.37;;;;;;;22.10;91.85;98205.25;4986982;28;20235;-68
2021/09/01 00:41:07;;;;;;;2.40;2.20;;;;;;;22.17;92.34;98224.28;4967563;28;20199;-69
2021/09/01 00:43:34;;;;;;;2.80;2.60;;;;;;;22.28;92.23;98243.47;4985423;28;20341;-69
2021/09/01 00:46:00;;;;;;;2.53;2.33;;;;;;;22.25;92.40;98243.34;4987658;28;20202;-69
2021/09/01 00:48:27;;;;;;;2.70;2.50;;;;;;;21.89;92.43;98176.28;4984100;28;20313;-68
2021/09/01 00:50:54;;;;;;;2.70;2.50;;;;;;;22.18;92.26;98228.59;4985447;28;20294;-69
2021/09/01 00:53:22;;;;;;;2.53;2.33;;;;;;;22.15;92.14;98215.69;4984993;28;20292;-69
2021/09/01 00:55:48;;;;;;;2.50;2.30;;;;;;;22.05;92.28;98200.78;4985031;28;20202;-67
2021/09/01 00:58:19;;;;;;;2.57;2.37;;;;;;;22.28;92.11;98238.34;4973223;28;20238;-69
2021/09/01 01:01:06;;;;;;;2.70;2.50;;;;;;;22.17;92.16;98227.69;4982491;28;20227;-68
2021/09/01 01:03:34;;;;;;;4.40;2.50;;;;;;;21.96;92.17;98187.66;4971092;28;20232;-68
2021/09/01 01:06:00;;;;;;;2.67;2.47;;;;;;;21.12;92.06;98047.06;4970521;28;20536;-68
2021/09/01 01:08:30;;;;;;;2.40;2.20;;;;;;;22.26;92.00;98238.28;4986598;28;20261;-69
2021/09/01 01:10:57;;;;;;;2.47;2.27;;;;;;;21.42;91.90;98107.94;4986410;28;20639;-68
2021/09/01 01:13:25;;;;;;;2.70;2.50;;;;;;;22.11;92.05;98207.00;4986338;28;20789;-70
2021/09/01 01:15:52;;;;;;;2.67;2.47;;;;;;;20.87;92.03;98011.94;4971991;28;20273;-70
2021/09/01 01:18:19;;;;;;;2.60;2.37;;;;;;;21.27;91.99;98068.97;4986109;28;20221;-69
2021/09/01 01:20:49;;;;;;;2.50;2.30;;;;;;;22.08;92.21;98219.69;4985617;28;20293;-70
2021/09/01 01:23:16;;;;;;;2.43;2.23;;;;;;;22.21;92.26;98239.84;4986265;28;20254;-70
2021/09/01 01:25:43;;;;;;;3.43;2.57;;;;;;;22.09;92.52;98213.75;4989043;28;20676;-69
2021/09/01 01:28:09;;;;;;;2.50;2.30;;;;;;;22.23;92.48;98248.41;4975453;28;20291;-69
2021/09/01 01:30:37;;;;;;;2.17;1.97;;;;;;;22.06;92.66;98216.22;4990177;28;20207;-70
2021/09/01 01:33:04;;;;;;;2.60;2.40;;;;;;;21.97;92.45;98203.06;4989354;28;20245;-69
2021/09/01 01:35:42;;;;;;;2.57;2.37;;;;;;;22.21;92.37;98238.94;4981112;28;20725;-70
2021/09/01 01:38:13;;;;;;;2.43;2.23;;;;;;;22.08;92.66;98218.81;4972245;28;20736;-70
2021/09/01 01:40:40;;;;;;;2.47;2.23;;;;;;;22.14;92.46;98231.84;4981843;28;20307;-70
2021/09/01 01:43:07;;;;;;;2.33;2.20;;;;;;;21.84;92.55;98182.91;4987313;28;20629;-70
2021/09/01 01:45:38;;;;;;;2.47;2.27;;;;;;;21.93;92.29;98190.94;4975708;28;20271;-70
2021/09/01 01:48:05;;;;;;;2.57;2.30;;;;;;;22.25;92.38;98251.03;4988228;28;20625;-69
2021/09/01 01:50:32;;;;;;;2.60;2.37;;;;;;;22.14;92.58;98230.16;4990054;28;20234;-71
2021/09/01 01:52:58;;;;;;;2.90;2.70;;;;;;;22.25;92.42;98251.91;4987133;28;20771;-70
2021/09/01 01:55:25;;;;;;;2.70;2.50;;;;;;;21.93;92.49;98196.06;4985735;28;20294;-70
2021/09/01 01:57:51;;;;;;;2.53;2.33;;;;;;;22.25;92.41;98256.16;4969298;28;20289;-70
2021/09/01 02:00:18;;;;;;;4.03;2.27;;;;;;;21.48;92.30;98120.06;4989791;28;20739;-70
2021/09/01 02:02:45;;;;;;;2.37;2.17;;;;;;;22.25;92.37;98251.91;4990232;28;20682;-70
2021/09/01 02:05:12;;;;;;;2.37;2.17;;;;;;;21.93;92.23;98197.75;4988081;28;20278;-69
2021/09/01 02:07:39;;;;;;;2.50;2.30;;;;;;;22.13;92.48;98230.97;4987829;28;20326;-69
2021/09/01 02:10:06;;;;;;;2.63;2.43;;;;;;;22.22;92.41;98251.81;4987240;28;20734;-69
2021/09/01 02:12:33;;;;;;;2.40;2.23;;;;;;;22.25;92.51;98254.47;4972718;28;20306;-70
2021/09/01 02:14:59;;;;;;;2.27;2.10;;;;;;;22.12;92.45;98233.47;4988348;28;20230;-69
2021/09/01 02:17:27;;;;;;;2.47;2.27;;;;;;;21.92;92.48;98191.75;4970405;28;20230;-70
2021/09/01 02:19:53;;;;;;;4.80;2.37;;;;;;;22.15;92.28;98239.59;4975171;28;20249;-70
2021/09/01 02:22:20;;;;;;;2.30;2.10;;;;;;;22.21;92.47;98251.75;4971199;28;20681;-70
2021/09/01 02:24:47;;;;;;;2.50;2.30;;;;;;;22.15;92.42;98241.28;4986999;28;20317;-70
2021/09/01 02:27:14;;;;;;;2.40;2.20;;;;;;;22.10;92.42;98233.41;4986515;28;20243;-69
2021/09/01 02:29:40;;;;;;;3.57;2.67;;;;;;;22.08;92.39;98231.63;4970341;28;20207;-70
2021/09/01 02:32:07;;;;;;;2.93;2.60;;;;;;;22.25;92.47;98258.72;4986641;28;20295;-69
2021/09/01 02:34:36;;;;;;;2.10;2.00;;;;;;;21.60;92.61;98147.00;4985814;28;20673;-69
2021/09/01 02:37:03;;;;;;;2.60;2.40;;;;;;;22.23;92.74;98255.25;4971286;28;20265;-69
2021/09/01 02:39:29;;;;;;;2.60;2.40;;;;;;;22.22;92.67;98263.72;4971832;28;20297;-69
2021/09/01 02:41:56;;;;;;;2.60;2.40;;;;;;;21.86;92.98;98200.88;4989394;28;20627;-69
2021/09/01 02:44:23;;;;;;;2.30;2.10;;;;;;;22.15;92.20;98259.19;4969800;28;20745;-69
2021/09/01 02:46:49;;;;;;;2.50;2.30;;;;;;;21.26;93.17;98104.72;4989033;28;20293;-69
2021/09/01 02:49:16;;;;;;;2.60;2.33;;;;;;;22.15;92.58;98257.53;4988389;28;20237;-69
2021/09/01 02:51:43;;;;;;;2.40;2.20;;;;;;;22.20;92.87;98273.91;4988565;28;20673;-69
2021/09/01 02:54:09;;;;;;;2.60;2.40;;;;;;;22.16;93.30;98273.72;4986297;28;20664;-69
2021/09/01 02:56:36;;;;;;;2.10;2.00;;;;;;;22.20;92.88;98279.03;4987459;28;20210;-70
2021/09/01 02:59:02;;;;;;;2.40;2.20;;;;;;;22.20;93.04;98276.47;4985082;28;20289;-70
2021/09/01 03:01:29;;;;;;;2.47;2.23;;;;;;;22.21;92.85;98275.69;4987644;28;20290;-69
2021/09/01 03:03:56;;;;;;;2.47;2.27;;;;;;;21.82;92.72;98206.72;4987969;28;20226;-70
2021/09/01 03:06:23;;;;;;;2.50;2.30;;;;;;;22.04;93.03;98250.22;4987504;28;20281;-70
2021/09/01 03:08:49;;;;;;;2.40;2.20;;;;;;;22.22;92.73;98279.09;4988577;28;20206;-70
2021/09/01 03:11:16;;;;;;;2.70;2.50;;;;;;;22.24;92.98;98272.34;4988793;28;20677;-69
2021/09/01 03:13:43;;;;;;;2.00;1.90;;;;;;;22.11;92.53;98255.63;4987163;28;20288;-70
2021/09/01 03:16:09;;;;;;;2.43;2.23;;;;;;;21.96;92.68;98229.44;4985471;28;20724;-67
2021/09/01 03:18:36;;;;;;;2.90;2.30;;;;;;;22.24;92.72;98274.91;4958500;28;20204;-70
2021/09/01 03:21:03;;;;;;;2.33;2.10;;;;;;;22.18;92.67;98267.88;4986504;28;20230;-69
2021/09/01 03:23:29;;;;;;;2.80;2.60;;;;;;;22.13;92.27;98264.25;4984274;28;20681;-70
2021/09/01 03:25:56;;;;;;;2.40;2.20;;;;;;;22.24;92.46;98280.91;4985666;28;20258;-69
2021/09/01 03:28:22;;;;;;;2.60;2.40;;;;;;;22.24;92.53;98277.47;4985038;28;20270;-69
2021/09/01 03:30:49;;;;;;;2.50;2.30;;;;;;;22.24;92.55;98274.91;4987099;28;20242;-69
2021/09/01 03:33:16;;;;;;;2.23;2.10;;;;;;;22.16;92.93;98271.16;4987798;28;20279;-69
2021/09/01 03:35:42;;;;;;;2.50;2.30;;;;;;;22.24;92.73;98274.91;4984240;28;20210;-68
2021/09/01 03:38:09;;;;;;;2.10;2.00;;;;;;;22.24;92.62;98274.91;4986505;28;20317;-70
2021/09/01 03:40:35;;;;;;;2.37;2.27;;;;;;;22.25;92.51;98282.66;4988109;28;20302;-70
2021/09/01 03:43:02;;;;;;;2.43;2.23;;;;;;;22.20;92.63;98265.38;4982602;28;20333;-69
2021/09/01 03:45:29;;;;;;;2.33;2.17;;;;;;;22.25;92.40;98284.31;4984660;28;20675;-69
2021/09/01 03:47:55;;;;;;;2.40;2.20;;;;;;;22.22;92.01;98272.28;4976409;28;20199;-70
2021/09/01 03:50:22;;;;;;;2.43;2.20;;;;;;;22.12;92.68;98261.63;4970347;28;20244;-69
2021/09/01 03:52:48;;;;;;;2.47;2.27;;;;;;;21.62;92.81;98178.59;4974646;28;20337;-70
2021/09/01 03:55:15;;;;;;;2.40;2.20;;;;;;;22.10;92.91;98263.25;4975276;28;20261;-70
2021/09/01 03:57:42;;;;;;;2.37;2.17;;;;;;;21.36;93.47;98146.03;4958005;28;20242;-69
2021/09/01 04:00:09;;;;;;;3.50;2.50;;;;;;;22.20;93.02;98285.88;4972176;28;20666;-69
2021/09/01 04:02:36;;;;;;;2.37;2.17;;;;;;;22.19;92.95;98290.09;4973020;28;20199;-69
2021/09/01 04:05:03;;;;;;;2.27;2.10;;;;;;;21.50;93.02;98172.16;4966932;28;20222;-69
2021/09/01 04:07:30;;;;;;;2.40;2.20;;;;;;;21.75;93.17;98215.81;4987338;28;20211;-69
2021/09/01 04:09:57;;;;;;;2.30;2.20;;;;;;;21.94;92.77;98248.13;4984905;28;20234;-69
2021/09/01 04:12:24;;;;;;;2.50;2.30;;;;;;;22.21;92.86;98295.28;4966804;28;20310;-69
2021/09/01 04:14:50;;;;;;;2.43;2.23;;;;;;;21.90;92.85;98238.59;4985659;28;20285;-70
2021/09/01 04:17:17;;;;;;;2.33;2.20;;;;;;;21.66;93.10;98197.50;4972163;28;20214;-69
2021/09/01 04:19:43;;;;;;;2.40;2.20;;;;;;;22.16;92.55;98283.97;4987101;28;20280;-69
2021/09/01 04:22:10;;;;;;;2.50;2.30;;;;;;;21.98;92.95;98260.22;4986559;28;20302;-70
2021/09/01 04:24:37;;;;;;;2.57;2.10;;;;;;;21.36;93.05;98156.28;4984089;28;20254;-70
2021/09/01 04:27:03;;;;;;;2.00;1.90;;;;;;;21.87;93.19;98233.34;4986217;28;20198;-69
2021/09/01 04:29:30;;;;;;;2.40;2.20;;;;;;;21.47;92.91;98177.16;4985922;28;20290;-69
2021/09/01 04:31:57;;;;;;;2.10;2.00;;;;;;;21.57;92.70;98181.81;4978365;28;20302;-69
2021/09/01 04:34:23;;;;;;;2.37;2.17;;;;;;;21.76;92.87;98220.13;4976142;28;20255;-69
2021/09/01 04:36:50;;;;;;;2.57;2.37;;;;;;;21.91;92.81;98235.22;4983566;28;20706;-70
2021/09/01 04:39:16;;;;;;;2.60;2.40;;;;;;;22.01;90.48;98258.66;4986913;28;20210;-69
2021/09/01 04:41:43;;;;;;;2.33;2.20;;;;;;;21.93;87.49;98259.19;4986012;28;20701;-69
2021/09/01 04:44:09;;;;;;;3.37;2.60;;;;;;;22.22;85.70;98299.56;4984785;28;20708;-69
2021/09/01 04:46:36;;;;;;;13.10;3.73;;;;;;;22.22;83.68;98305.56;4986779;28;20361;-69
2021/09/01 04:49:03;;;;;;;4.60;2.60;;;;;;;22.22;82.08;98304.69;4986827;28;20257;-68
2021/09/01 04:51:29;;;;;;;5.53;2.90;;;;;;;22.15;80.68;98298.47;4986134;28;20301;-69
2021/09/01 04:53:56;;;;;;;2.80;2.60;;;;;;;22.21;80.31;98313.19;4986971;28;20273;-70
2021/09/01 04:56:22;;;;;;;6.03;3.23;;;;;;;22.04;81.15;98284.38;4985899;28;20309;-69
2021/09/01 04:58:49;;;;;;;6.33;2.80;;;;;;;21.95;81.33;98265.22;4986265;28;20306;-69
2021/09/01 05:01:16;;;;;;;3.67;2.70;;;;;;;22.22;81.10;98320.94;4990766;28;20202;-69
2021/09/01 05:03:42;;;;;;;3.03;2.80;;;;;;;22.21;81.24;98311.53;4974967;28;20241;-69
2021/09/01 05:06:09;;;;;;;2.93;2.73;;;;;;;22.20;81.12;98314.03;4991150;28;20207;-70
2021/09/01 05:08:36;;;;;;;3.00;2.60;;;;;;;22.13;79.29;98309.47;4989200;28;20203;-69
2021/09/01 05:11:02;;;;;;;3.30;2.73;;;;;;;22.00;78.22;98284.19;4988486;28;20826;-69
2021/09/01 05:13:29;;;;;;;3.00;2.80;;;;;;;21.94;77.05;98281.41;4987588;28;20787;-69
2021/09/01 05:15:58;;;;;;;4.53;2.73;;;;;;;22.06;76.16;98304.91;4981762;28;20262;-69
2021/09/01 05:18:24;;;;;;;3.40;3.10;;;;;;;21.35;75.92;98190.31;4961500;28;20593;-69
2021/09/01 05:20:51;;;;;;;4.43;3.03;;;;;;;21.87;74.69;98267.47;4988338;28;20202;-70
2021/09/01 05:23:18;;;;;;;3.07;2.87;;;;;;;21.93;74.85;98275.41;4972921;28;20239;-69
2021/09/01 05:25:47;;;;;;;2.87;2.60;;;;;;;22.20;75.38;98324.25;4954514;28;20634;-69
2021/09/01 05:28:15;;;;;;;3.17;2.87;;;;;;;22.20;76.51;98324.25;4986282;28;20211;-69
2021/09/01 05:30:44;;;;;;;3.00;2.80;;;;;;;22.20;77.51;98331.94;4983859;28;20210;-69
2021/09/01 05:33:10;;;;;;;2.67;2.47;;;;;;;22.20;78.34;98331.94;4979174;28;20226;-70
2021/09/01 05:35:37;;;;;;;2.80;2.60;;;;;;;22.05;79.00;98309.16;4984190;28;20245;-68
2021/09/01 05:38:04;;;;;;;2.83;2.63;;;;;;;22.19;79.78;98336.19;4972372;28;20273;-69
2021/09/01 05:40:30;;;;;;;3.27;2.80;;;;;;;22.20;78.89;98342.19;4987257;28;20234;-68
2021/09/01 05:42:57;;;;;;;3.37;3.07;;;;;;;22.14;77.34;98329.16;4990010;28;20231;-69
2021/09/01 05:45:24;;;;;;;3.37;2.90;;;;;;;22.20;76.19;98342.19;4987411;28;20234;-70
2021/09/01 05:47:51;;;;;;;3.50;3.10;;;;;;;22.19;75.26;98337.88;4986912;28;20694;-69
2021/09/01 05:50:19;;;;;;;5.03;3.17;;;;;;;22.18;74.45;98334.44;4988437;28;20611;-70
2021/09/01 05:52:46;;;;;;;3.23;3.00;;;;;;;22.01;73.36;98304.75;4988969;28;20694;-69
2021/09/01 05:55:13;;;;;;;4.60;3.87;;;;;;;22.17;73.22;98334.38;4972843;28;20227;-69
2021/09/01 05:57:40;;;;;;;4.20;3.90;;;;;;;22.10;72.94;98324.69;4984687;28;20227;-69
2021/09/01 06:00:06;;;;;;;5.70;3.63;;;;;;;22.17;72.33;98332.69;4977229;28;20253;-69
2021/09/01 06:02:52;;;;;;;5.77;4.10;;;;;;;22.17;72.16;98334.38;4981942;28;20238;-71
2021/09/01 06:05:20;;;;;;;6.60;4.03;;;;;;;21.85;71.72;98276.81;4972364;28;20227;-68
2021/09/01 06:07:55;;;;;;;4.33;3.93;;;;;;;22.15;71.55;98334.31;4987993;28;20289;-69
2021/09/01 06:10:29;;;;;;;4.97;4.47;;;;;;;22.07;71.12;98316.91;4987062;28;20214;-69
2021/09/01 06:13:03;;;;;;;6.30;3.97;;;;;;;22.15;71.30;98336.00;4988464;28;20206;-69
2021/09/01 06:15:29;;;;;;;5.60;4.23;;;;;;;22.14;71.15;98335.13;4988786;28;20238;-69
2021/09/01 06:17:56;;;;;;;7.90;4.20;;;;;;;21.83;71.27;98285.22;4988142;28;20633;-70
2021/09/01 06:20:23;;;;;;;4.80;3.80;;;;;;;22.13;71.38;98345.31;4987659;28;20243;-70
2021/09/01 06:22:49;;;;;;;4.47;4.07;;;;;;;22.12;70.96;98343.56;4988828;28;20668;-67
2021/09/01 06:25:16;;;;;;;4.50;4.10;;;;;;;22.12;71.43;98356.38;4986583;28;20313;-68
2021/09/01 06:27:43;;;;;;;6.53;4.00;;;;;;;22.01;71.96;98340.56;4987266;28;20281;-69
2021/09/01 06:30:10;;;;;;;4.40;4.00;;;;;;;22.09;72.50;98352.00;4987689;28;20231;-68
2021/09/01 06:32:37;;;;;;;4.50;4.10;;;;;;;22.01;73.37;98339.69;4968607;28;20235;-69
2021/09/01 06:35:04;;;;;;;4.23;3.83;;;;;;;22.09;73.65;98354.56;4987256;28;21544;-69
2021/09/01 06:37:32;;;;;;;4.63;4.03;;;;;;;21.81;74.27;98308.19;4986625;28;20211;-69
2021/09/01 06:39:58;;;;;;;4.27;3.87;;;;;;;22.00;75.09;98346.50;4971356;28;20227;-67
2021/09/01 06:42:26;;;;;;;7.83;4.50;;;;;;;22.09;75.39;98362.25;4987392;28;20646;-70
2021/09/01 06:44:53;;;;;;;7.87;4.33;;;;;;;22.02;75.30;98351.69;4979496;28;20309;-69
2021/09/01 06:47:19;;;;;;;5.40;4.40;;;;;;;22.03;74.99;98359.44;4986761;28;20234;-69
2021/09/01 06:49:46;;;;;;;6.27;5.30;;;;;;;22.09;74.29;98369.03;4988537;28;20230;-69
2021/09/01 06:52:12;;;;;;;6.60;5.93;;;;;;;22.08;73.83;98370.72;4987242;28;20302;-69
2021/09/01 06:54:39;;;;;;;8.73;5.97;;;;;;;;;;4987789;28;20256;-70
2021/09/01 06:57:05;;;;;;;6.97;6.27;;;;;;;22.02;73.43;98361.94;4988321;28;20290;-69
2021/09/01 06:59:32;;;;;;;8.63;6.37;;;;;;;21.95;73.64;98353.13;4988566;28;20230;-69
2021/09/01 07:01:58;;;;;;;8.93;6.50;;;;;;;22.04;73.49;98373.09;4986374;28;20234;-70
2021/09/01 07:04:25;;;;;;;10.97;6.23;;;;;;;22.04;74.14;98367.97;4986721;28;20235;-69
2021/09/01 07:06:52;;;;;;;8.73;5.73;;;;;;;22.03;74.39;98373.91;4988599;28;20325;-69
2021/09/01 07:09:18;;;;;;;7.13;5.90;;;;;;;22.03;74.13;98371.34;4987058;28;20234;-69
2021/09/01 07:11:45;;;;;;;7.13;5.30;;;;;;;22.03;74.83;98371.34;4986955;28;20234;-68
2021/09/01 07:14:12;;;;;;;7.23;5.70;;;;;;;21.91;75.47;98347.81;4987762;28;20297;-69
2021/09/01 07:16:38;;;;;;;6.43;5.77;;;;;;;21.98;76.00;98363.50;4987347;28;20277;-70
2021/09/01 07:19:05;;;;;;;7.53;5.40;;;;;;;21.92;76.34;98350.44;4985585;28;20234;-69
2021/09/01 07:21:31;;;;;;;5.80;5.20;;;;;;;21.93;76.87;98354.75;4987185;28;20771;-69
2021/09/01 07:24:00;;;;;;;6.40;5.50;;;;;;;21.94;77.21;98356.50;4984898;28;20791;-69
2021/09/01 07:26:26;;;;;;;7.33;5.30;;;;;;;21.83;77.05;98338.94;4974853;28;20242;-69
2021/09/01 07:28:53;;;;;;;5.80;5.20;;;;;;;22.02;77.68;98380.72;4983115;28;20314;-69
2021/09/01 07:31:19;;;;;;;6.60;5.53;;;;;;;21.92;78.11;98360.69;4982572;28;21025;-69
2021/09/01 07:33:46;;;;;;;7.10;5.60;;;;;;;21.92;78.48;98363.25;4979719;28;20723;-69
2021/09/01 07:36:13;;;;;;;5.47;4.97;;;;;;;22.04;78.52;98393.56;4982077;28;20641;-69
2021/09/01 07:38:39;;;;;;;8.20;5.50;;;;;;;22.03;78.89;98395.28;4986374;28;20217;-69
2021/09/01 07:41:06;;;;;;;7.80;5.00;;;;;;;22.04;79.15;98398.69;4981628;28;20761;-68
2021/09/01 07:43:33;;;;;;;5.77;4.90;;;;;;;21.89;79.96;98375.03;4981799;28;20251;-69
2021/09/01 07:45:59;;;;;;;5.37;4.73;;;;;;;21.93;80.10;98387.16;4986724;28;20250;-69
2021/09/01 07:48:26;;;;;;;10.70;5.10;;;;;;;21.98;80.60;98399.31;4984143;28;20269;-70
2021/09/01 07:50:53;;;;;;;6.10;5.13;;;;;;;21.70;80.21;98348.63;4984469;28;20211;-69
2021/09/01 07:53:19;;;;;;;6.07;5.40;;;;;;;21.94;80.37;98392.34;4981583;28;20277;-69
2021/09/01 07:55:46;;;;;;;6.83;4.93;;;;;;;22.00;80.40;98399.38;4983772;28;20286;-70
2021/09/01 07:58:13;;;;;;;5.47;4.93;;;;;;;22.06;80.83;98412.44;4983871;28;20607;-69
2021/09/01 08:00:39;;;;;;;7.93;4.63;;;;;;;22.07;80.71;98416.72;4985313;28;20206;-69
2021/09/01 08:03:07;;;;;;;5.77;5.17;;;;;;;22.02;81.22;98411.44;4985885;28;20211;-69
2021/09/01 08:05:34;;;;;;;7.37;5.10;;;;;;;22.07;81.14;98424.41;4991539;28;20673;-69
2021/09/01 08:08:00;;;;;;;6.60;5.20;;;;;;;22.08;80.96;98421.91;4989441;28;21046;-68
2021/09/01 08:10:27;;;;;;;5.43;4.80;;;;;;;22.05;81.02;98420.94;4982010;28;20297;-69
2021/09/01 08:12:54;;;;;;;5.87;4.93;;;;;;;22.03;81.07;98404.63;4979423;28;20322;-69
2021/09/01 08:15:20;;;;;;;6.00;5.07;;;;;;;21.96;81.05;98397.53;4982894;28;20234;-68
2021/09/01 08:17:47;;;;;;;5.53;4.93;;;;;;;21.96;81.18;98397.53;4980651;28;20293;-69
2021/09/01 08:20:13;;;;;;;5.20;4.70;;;;;;;22.01;81.52;98398.56;4963757;28;20624;-70
2021/09/01 08:22:41;;;;;;;5.07;4.57;;;;;;;22.09;81.49;98421.13;4979365;28;20309;-69
2021/09/01 08:25:08;;;;;;;7.37;4.80;;;;;;;22.10;81.56;98419.41;4984073;28;20250;-67
2021/09/01 08:27:35;;;;;;;5.73;4.63;;;;;;;22.07;81.81;98421.84;4983452;28;20715;-69
2021/09/01 08:30:02;;;;;;;11.73;5.30;;;;;;;22.06;82.08;98432.91;4984061;28;20298;-68
2021/09/01 08:32:29;;;;;;;5.00;4.40;;;;;;;22.06;81.79;98435.47;4963445;28;20741;-68
2021/09/01 08:34:55;;;;;;;7.73;5.00;;;;;;;22.08;81.96;98433.88;4986654;28;20246;-68
2021/09/01 08:37:22;;;;;;;5.13;4.57;;;;;;;22.11;82.06;98434.84;4985254;28;20234;-67
2021/09/01 08:39:48;;;;;;;5.20;4.70;;;;;;;22.12;82.12;98435.72;4985360;28;20530;-68
2021/09/01 08:42:18;;;;;;;4.87;4.40;;;;;;;22.03;82.31;98413.19;4986700;28;20238;-68
2021/09/01 08:44:45;;;;;;;5.07;4.57;;;;;;;;;;4968425;28;21000;-68
2021/09/01 08:47:11;;;;;;;4.83;4.40;;;;;;;21.99;82.47;98401.06;4985911;28;20760;-68
2021/09/01 08:49:38;;;;;;;4.40;4.00;;;;;;;21.90;82.35;98385.31;4966838;28;20293;-68
2021/09/01 08:52:04;;;;;;;4.97;4.47;;;;;;;22.05;82.67;98415.81;4985183;28;20258;-68
2021/09/01 08:54:32;;;;;;;4.50;4.10;;;;;;;21.98;83.36;98412.13;4985238;28;20293;-68
2021/09/01 08:56:58;;;;;;;5.40;4.67;;;;;;;22.12;83.17;98439.19;4979879;28;20286;-67
2021/09/01 08:59:25;;;;;;;4.57;4.17;;;;;;;22.10;83.36;98421.97;4980340;28;20680;-68
2021/09/01 09:01:53;;;;;;;4.90;4.40;;;;;;;22.04;83.78;98421.72;4985287;28;20871;-68
2021/09/01 09:04:29;;;;;;;5.13;4.63;;;;;;;21.78;83.74;98373.69;4984892;28;20319;-69
2021/09/01 09:06:59;;;;;;;4.83;4.33;;;;;;;22.11;83.33;98429.72;4983521;28;20309;-68
2021/09/01 09:09:27;;;;;;;5.33;4.50;;;;;;;22.02;82.65;98415.69;4984492;28;20234;-68
2021/09/01 09:11:55;;;;;;;5.40;4.90;;;;;;;22.12;81.98;98435.72;4972281;28;20238;-69
2021/09/01 09:14:31;;;;;;;5.03;4.47;;;;;;;22.11;81.36;98431.44;4986712;28;20276;-67
2021/09/01 09:17:18;;;;;;;5.60;4.70;;;;;;;22.03;81.39;98412.31;4984731;28;20629;-68
2021/09/01 09:19:51;;;;;;;5.17;4.57;;;;;;;22.11;81.00;98422.03;4968271;28;20321;-68
2021/09/01 09:22:24;;;;;;;6.60;5.10;;;;;;;22.11;79.66;98432.28;4977026;28;20251;-68
2021/09/01 09:25:10;;;;;;;6.43;5.10;;;;;;;22.11;78.54;98419.47;4982861;28;20255;-68
2021/09/01 09:27:48;;;;;;;6.37;5.70;;;;;;;22.11;78.52;98421.19;4983853;28;20639;-69
2021/09/01 09:30:21;;;;;;;5.30;4.80;;;;;;;22.11;79.16;98424.59;4980862;28;20727;-69
2021/09/01 09:33:08;;;;;;;7.00;5.10;;;;;;;22.11;79.66;98427.16;4983283;28;20257;-72
2021/09/01 09:35:58;;;;;;;5.53;4.97;;;;;;;22.12;79.92;98430.59;4969301;28;20298;-69
2021/09/01 09:38:32;;;;;;;7.20;5.33;;;;;;;22.02;79.37;98416.53;4985152;28;20262;-69
2021/09/01 09:41:00;;;;;;;7.70;4.90;;;;;;;22.06;78.47;98426.13;4985340;28;20293;-69
2021/09/01 09:43:27;;;;;;;7.00;5.17;;;;;;;22.12;78.97;98439.19;4984272;28;20230;-68
2021/09/01 09:46:07;;;;;;;5.90;4.87;;;;;;;21.98;79.59;98413.78;4988282;28;20297;-69
2021/09/01 09:48:35;;;;;;;5.70;4.60;;;;;;;22.04;80.07;98416.59;4986878;28;20240;-69
2021/09/01 09:51:03;;;;;;;5.93;4.47;;;;;;;22.03;79.77;98410.63;4988575;28;20208;-69
2021/09/01 09:53:41;;;;;;;6.40;4.73;;;;;;;21.75;78.89;98364.22;4988449;28;20222;-69
2021/09/01 09:56:23;;;;;;;5.40;4.70;;;;;;;22.05;78.00;98415.81;4985159;28;20512;-68
2021/09/01 09:58:52;;;;;;;7.03;5.10;;;;;;;22.08;77.33;98421.91;4988295;28;20241;-69
2021/09/01 10:01:19;;;;;;;5.40;4.90;;;;;;;22.13;76.51;98435.78;4987239;28;20222;-70
2021/09/01 10:03:47;;;;;;;5.90;5.03;;;;;;;21.97;76.91;98404.38;4982739;28;20242;-68
2021/09/01 10:06:17;;;;;;;5.93;5.10;;;;;;;22.03;77.89;98410.63;4984138;28;20727;-71
2021/09/01 10:08:45;;;;;;;6.87;4.57;;;;;;;22.11;78.51;98418.63;4970372;28;20887;-70
2021/09/01 10:11:13;;;;;;;5.10;4.63;;;;;;;21.88;78.61;98384.41;4989321;28;20747;-68
2021/09/01 10:13:44;;;;;;;7.53;5.00;;;;;;;21.99;79.37;98405.31;4972801;28;20284;-70
2021/09/01 10:16:14;;;;;;;7.37;4.90;;;;;;;;;;4992629;28;20676;-69
2021/09/01 10:18:41;;;;;;;5.33;4.83;;;;;;;22.10;79.91;98425.44;4990453;28;20206;-69
2021/09/01 10:21:08;;;;;;;7.57;4.60;;;;;;;22.02;79.28;98408.88;4975166;28;20298;-69
2021/09/01 10:23:42;;;;;;;5.27;4.77;;;;;;;22.06;79.59;98412.44;4976192;28;20251;-68
2021/09/01 10:26:31;;;;;;;6.00;5.03;;;;;;;22.11;80.02;98423.75;4994010;28;20360;-70
2021/09/01 10:29:01;;;;;;;6.57;4.90;;;;;;;21.79;80.43;98355.84;4992741;28;20268;-70
2021/09/01 10:31:36;;;;;;;7.13;4.47;;;;;;;22.00;80.49;98389.16;4962238;28;20623;-69
2021/09/01 10:34:23;;;;;;;6.03;5.00;;;;;;;22.12;80.67;98411.00;4993824;28;20231;-68
2021/09/01 10:36:51;;;;;;;5.40;4.87;;;;;;;22.01;80.93;98389.22;4993640;28;20290;-68
2021/09/01 10:39:30;;;;;;;5.60;5.00;;;;;;;22.12;81.05;98408.44;4995615;28;20292;-69
2021/09/01 10:41:56;;;;;;;6.00;4.80;;;;;;;22.13;81.31;98407.63;4986664;28;20298;-67
2021/09/01 10:44:26;;;;;;;6.90;4.73;;;;;;;22.13;81.33;98410.19;4987606;28;20244;-69
2021/09/01 10:46:55;;;;;;;10.03;5.07;;;;;;;22.13;81.33;98397.38;4985410;28;20261;-70
2021/09/01 10:49:26;;;;;;;5.63;4.90;;;;;;;22.04;81.44;98393.56;4986500;28;20695;-70
2021/09/01 10:51:55;;;;;;;5.40;4.60;;;;;;;22.13;81.56;98407.63;4974051;28;20247;-69
2021/09/01 10:54:32;;;;;;;5.00;4.53;;;;;;;22.13;81.57;98401.63;4992378;28;20780;-69
2021/09/01 10:56:59;;;;;;;5.10;4.60;;;;;;;22.03;81.72;98384.16;4990960;28;20298;-68
2021/09/01 10:59:27;;;;;;;5.37;4.83;;;;;;;22.14;81.89;98400.84;4975148;28;20298;-69
2021/09/01 11:02:08;;;;;;;5.07;4.57;;;;;;;22.14;81.92;98406.81;4991677;28;20589;-69
2021/09/01 11:04:35;;;;;;;5.33;4.47;;;;;;;;;;4978937;28;20233;-69
2021/09/01 11:07:03;;;;;;;6.77;4.43;;;;;;;22.06;82.10;98399.63;4995401;28;20639;-68
2021/09/01 11:09:29;;;;;;;5.17;4.67;;;;;;;21.84;81.97;98354.38;4960329;28;20233;-69
2021/09/01 11:11:57;;;;;;;5.20;4.70;;;;;;;22.11;82.18;98405.84;4979259;28;20432;-69
2021/09/01 11:14:40;;;;;;;4.87;4.30;;;;;;;22.14;81.84;98404.25;4983615;28;20234;-69
2021/09/01 11:17:26;;;;;;;5.10;4.60;;;;;;;22.11;81.84;98395.59;4987212;28;20334;-69
2021/09/01 11:19:54;;;;;;;6.13;4.83;;;;;;;22.14;82.13;98401.69;5004653;28;20300;-69
2021/09/01 11:22:24;;;;;;;5.20;4.70;;;;;;;22.06;82.15;98389.41;4994142;28;20213;-69
2021/09/01 11:24:59;;;;;;;5.03;4.53;;;;;;;22.06;82.16;98382.59;4991871;28;20238;-70
2021/09/01 11:27:27;;;;;;;5.33;4.83;;;;;;;21.99;82.40;98365.22;4975570;28;20611;-69
2021/09/01 11:30:04;;;;;;;5.43;4.90;;;;;;;22.14;82.55;98398.28;4991572;28;20764;-68
2021/09/01 11:32:31;;;;;;;5.17;4.70;;;;;;;22.12;82.64;98394.75;4989523;28;20214;-69
2021/09/01 11:35:02;;;;;;;6.23;4.90;;;;;;;22.13;82.69;98396.50;4992929;28;20326;-70
2021/09/01 11:37:30;;;;;;;4.73;4.33;;;;;;;21.93;82.18;98366.69;4977977;28;20206;-75
2021/09/01 11:39:57;;;;;;;4.97;4.20;;;;;;;22.12;80.98;98395.66;4971886;28;20206;-68
2021/09/01 11:42:33;;;;;;;4.70;4.13;;;;;;;22.02;81.29;98385.81;4982108;28;20226;-68